createdAt,value
2018-09-19T00:00:04.791Z,2.57
2018-09-19T00:02:32.186Z,2.40
2018-09-19T00:04:59.624Z,2.30
2018-09-19T00:07:27.030Z,2.77
2018-09-19T00:09:54.420Z,3.00
2018-09-19T00:12:21.862Z,2.87
2018-09-19T00:14:49.281Z,2.57
2018-09-19T00:17:16.707Z,2.40
2018-09-19T00:19:44.094Z,2.70
2018-09-19T00:22:11.535Z,2.70
2018-09-19T00:24:38.964Z,2.70
2018-09-19T00:27:06.394Z,2.83
2018-09-19T00:29:33.787Z,3.00
2018-09-19T00:32:01.181Z,2.63
2018-09-19T00:34:28.611Z,2.90
2018-09-19T00:36:55.984Z,2.73
2018-09-19T00:39:23.452Z,2.60
2018-09-19T00:41:50.881Z,2.70
2018-09-19T00:44:18.295Z,2.87
2018-09-19T00:46:45.729Z,2.20
2018-09-19T00:49:13.125Z,2.63
2018-09-19T00:51:40.543Z,2.30
2018-09-19T00:54:07.985Z,2.73
2018-09-19T00:56:35.395Z,3.07
2018-09-19T00:59:02.821Z,2.97
2018-09-19T01:01:30.233Z,2.53
2018-09-19T01:03:57.686Z,2.93
2018-09-19T01:06:25.157Z,2.37
2018-09-19T01:08:52.601Z,2.93
2018-09-19T01:11:20.015Z,2.77
2018-09-19T01:13:47.871Z,2.70
2018-09-19T01:16:15.282Z,3.17
2018-09-19T01:18:42.682Z,2.77
2018-09-19T01:21:10.113Z,2.97
2018-09-19T01:23:37.544Z,3.10
2018-09-19T01:26:05.202Z,2.87
2018-09-19T01:28:32.746Z,2.73
2018-09-19T01:31:00.090Z,2.83
2018-09-19T01:33:27.511Z,2.80
2018-09-19T01:35:54.954Z,2.90
2018-09-19T01:38:22.322Z,2.97
2018-09-19T01:40:49.746Z,2.90
2018-09-19T01:43:17.112Z,2.80
2018-09-19T01:45:44.538Z,3.33
2018-09-19T01:48:11.942Z,3.43
2018-09-19T01:50:39.374Z,2.87
2018-09-19T01:53:06.783Z,3.13
2018-09-19T01:55:34.201Z,3.50
2018-09-19T01:58:01.620Z,4.27
2018-09-19T02:00:29.010Z,3.10
2018-09-19T02:02:56.436Z,3.37
2018-09-19T02:05:23.837Z,3.07
2018-09-19T02:07:51.260Z,3.37
2018-09-19T02:10:18.636Z,3.20
2018-09-19T02:12:46.076Z,3.27
2018-09-19T02:15:13.454Z,3.37
2018-09-19T02:17:40.865Z,3.00
2018-09-19T02:20:08.323Z,3.33
2018-09-19T02:22:35.716Z,3.17
2018-09-19T02:25:03.160Z,3.37
2018-09-19T02:27:30.590Z,3.50
2018-09-19T02:29:58.017Z,3.50
2018-09-19T02:32:25.417Z,3.30
2018-09-19T02:34:52.856Z,3.00
2018-09-19T02:37:20.230Z,3.00
2018-09-19T02:39:47.666Z,3.30
2018-09-19T02:42:15.053Z,3.40
2018-09-19T02:44:42.505Z,3.13
2018-09-19T02:47:09.892Z,3.87
2018-09-19T02:49:37.304Z,3.20
2018-09-19T02:52:04.762Z,3.10
2018-09-19T02:54:32.180Z,3.27
2018-09-19T02:56:59.581Z,3.57
2018-09-19T02:59:27.194Z,3.30
2018-09-19T03:01:54.659Z,3.47
2018-09-19T03:04:22.077Z,3.30
2018-09-19T03:06:49.497Z,3.53
2018-09-19T03:09:16.896Z,3.30
2018-09-19T03:11:44.305Z,3.60
2018-09-19T03:14:11.718Z,3.87
2018-09-19T03:16:39.185Z,3.80
2018-09-19T03:19:06.608Z,3.67
2018-09-19T03:21:34.016Z,3.40
2018-09-19T03:24:01.495Z,3.53
2018-09-19T03:26:28.951Z,3.33
2018-09-19T03:28:56.439Z,3.90
2018-09-19T03:31:23.860Z,3.30
2018-09-19T03:33:51.275Z,3.70
2018-09-19T03:36:18.685Z,3.20
2018-09-19T03:38:46.145Z,3.90
2018-09-19T03:41:13.612Z,3.73
2018-09-19T03:43:41.028Z,3.70
2018-09-19T03:46:08.471Z,3.87
2018-09-19T03:48:35.872Z,3.80
2018-09-19T03:51:03.242Z,3.20
2018-09-19T03:53:30.667Z,3.87
2018-09-19T03:55:58.073Z,3.80
2018-09-19T03:58:25.500Z,3.50
2018-09-19T04:00:52.890Z,3.80
2018-09-19T04:03:20.335Z,3.70
2018-09-19T04:05:47.750Z,3.80
2018-09-19T04:08:15.245Z,4.37
2018-09-19T04:10:42.610Z,4.30
2018-09-19T04:13:10.023Z,4.60
2018-09-19T04:15:37.429Z,4.50
2018-09-19T04:18:04.857Z,4.40
2018-09-19T04:20:32.301Z,4.40
2018-09-19T04:22:59.713Z,3.80
2018-09-19T04:25:27.223Z,4.70
2018-09-19T04:27:54.607Z,4.50
2018-09-19T04:30:22.011Z,4.83
2018-09-19T04:32:49.398Z,4.80
2018-09-19T04:35:16.857Z,4.60
2018-09-19T04:37:44.280Z,4.43
2018-09-19T04:40:11.692Z,4.17
2018-09-19T04:42:39.104Z,4.40
2018-09-19T04:45:06.561Z,4.20
2018-09-19T04:47:33.950Z,4.57
2018-09-19T04:50:01.373Z,4.33
2018-09-19T04:52:28.913Z,4.90
2018-09-19T04:54:56.299Z,4.53
2018-09-19T04:57:23.727Z,4.50
2018-09-19T04:59:51.152Z,4.63
2018-09-19T05:02:18.558Z,5.07
2018-09-19T05:04:46.039Z,4.90
2018-09-19T05:07:13.493Z,4.67
2018-09-19T05:09:40.873Z,4.40
2018-09-19T05:12:08.398Z,4.90
2018-09-19T05:14:35.816Z,4.50
2018-09-19T05:17:03.306Z,4.60
2018-09-19T05:19:30.712Z,4.60
2018-09-19T05:21:58.180Z,5.27
2018-09-19T05:24:25.591Z,4.80
2018-09-19T05:26:53.015Z,4.57
2018-09-19T05:29:20.421Z,4.83
2018-09-19T05:31:47.920Z,4.90
2018-09-19T05:34:15.311Z,5.10
2018-09-19T05:36:42.699Z,5.47
2018-09-19T05:39:10.101Z,5.47
2018-09-19T05:41:37.511Z,5.00
2018-09-19T05:44:04.946Z,5.13
2018-09-19T05:46:32.388Z,4.87
2018-09-19T05:48:59.858Z,4.63
2018-09-19T05:51:27.252Z,5.10
2018-09-19T05:53:54.678Z,4.90
2018-09-19T05:56:22.058Z,5.20
2018-09-19T05:58:49.485Z,4.90
2018-09-19T06:01:16.873Z,5.00
2018-09-19T06:03:44.378Z,4.87
2018-09-19T06:06:11.844Z,4.80
2018-09-19T06:08:39.290Z,4.90
2018-09-19T06:11:06.713Z,4.83
2018-09-19T06:13:34.171Z,4.90
2018-09-19T06:16:01.577Z,5.43
2018-09-19T06:18:29.011Z,4.87
2018-09-19T06:20:56.451Z,5.17
2018-09-19T06:23:23.823Z,5.23
2018-09-19T06:25:51.262Z,5.17
2018-09-19T06:28:18.693Z,5.27
2018-09-19T06:30:46.097Z,5.37
2018-09-19T06:33:13.601Z,5.43
2018-09-19T06:35:40.916Z,5.27
2018-09-19T06:38:08.305Z,5.83
2018-09-19T06:40:35.829Z,5.27
2018-09-19T06:43:03.248Z,5.37
2018-09-19T06:45:30.748Z,5.33
2018-09-19T06:47:58.072Z,5.30
2018-09-19T06:50:25.531Z,5.40
2018-09-19T06:52:52.914Z,5.57
2018-09-19T06:55:20.347Z,4.53
2018-09-19T06:57:47.779Z,5.53
2018-09-19T07:09:09.986Z,4.60
2018-09-19T07:11:37.445Z,4.57
2018-09-19T07:14:05.070Z,4.57
2018-09-19T07:16:32.522Z,4.63
2018-09-19T07:19:00.019Z,4.43
2018-09-19T07:21:27.399Z,4.80
2018-09-19T07:23:54.824Z,5.13
2018-09-19T07:26:22.243Z,4.83
2018-09-19T07:28:49.687Z,4.43
2018-09-19T07:31:17.141Z,4.40
2018-09-19T07:33:44.541Z,3.83
2018-09-19T07:36:12.108Z,4.10
2018-09-19T07:38:39.597Z,3.97
2018-09-19T07:41:07.024Z,3.70
2018-09-19T07:43:34.453Z,3.63
2018-09-19T07:46:01.887Z,4.00
2018-09-19T07:48:29.344Z,4.23
2018-09-19T07:50:56.734Z,4.10
2018-09-19T07:53:28.756Z,4.07
2018-09-19T07:55:56.149Z,3.83
2018-09-19T07:58:23.549Z,3.40
2018-09-19T08:00:51.109Z,3.20
2018-09-19T08:03:18.377Z,3.63
2018-09-19T08:05:45.852Z,3.20
2018-09-19T08:08:13.347Z,3.23
2018-09-19T08:10:40.756Z,3.33
2018-09-19T08:13:08.208Z,3.27
2018-09-19T08:15:35.628Z,3.00
2018-09-19T08:18:03.018Z,2.97
2018-09-19T08:20:30.408Z,3.00
2018-09-19T08:22:57.851Z,2.70
2018-09-19T08:25:25.228Z,3.10
2018-09-19T08:27:52.703Z,3.20
2018-09-19T08:30:20.093Z,2.60
2018-09-19T08:32:47.514Z,2.80
2018-09-19T08:35:15.005Z,2.70
2018-09-19T08:37:42.440Z,2.80
2018-09-19T08:40:09.879Z,2.23
2018-09-19T08:42:37.274Z,2.80
2018-09-19T08:45:04.758Z,2.70
2018-09-19T08:47:32.141Z,2.63
2018-09-19T08:49:59.601Z,3.37
2018-09-19T08:52:27.013Z,2.93
2018-09-19T08:54:54.465Z,3.10
2018-09-19T08:57:21.922Z,3.07
2018-09-19T08:59:49.401Z,2.90
2018-09-19T09:02:16.816Z,2.90
2018-09-19T09:04:44.266Z,2.80
2018-09-19T09:07:11.681Z,3.47
2018-09-19T09:09:39.246Z,3.10
2018-09-19T09:12:06.641Z,3.13
2018-09-19T09:14:34.073Z,3.10
2018-09-19T09:17:01.483Z,2.93
2018-09-19T09:19:28.864Z,3.30
2018-09-19T09:21:56.302Z,3.10
2018-09-19T09:24:23.721Z,3.63
2018-09-19T09:26:51.226Z,3.77
2018-09-19T09:29:18.611Z,3.87
2018-09-19T09:31:46.099Z,3.00
2018-09-19T09:34:13.480Z,2.50
2018-09-19T09:36:41.033Z,3.10
2018-09-19T09:39:08.392Z,3.10
2018-09-19T09:41:35.854Z,3.20
2018-09-19T09:44:03.318Z,2.97
2018-09-19T09:46:30.895Z,2.90
2018-09-19T09:48:58.432Z,2.95
2018-09-19T09:51:26.065Z,3.17
2018-09-19T09:53:53.390Z,2.80
2018-09-19T09:56:20.836Z,2.72
2018-09-19T09:58:48.303Z,2.72
2018-09-19T10:01:15.716Z,3.17
2018-09-19T10:03:43.180Z,3.00
2018-09-19T10:06:10.593Z,2.85
2018-09-19T10:08:38.054Z,2.92
2018-09-19T10:11:05.908Z,2.90
2018-09-19T10:13:33.424Z,3.20
2018-09-19T10:16:00.814Z,2.92
2018-09-19T10:18:28.279Z,2.65
2018-09-19T10:20:55.742Z,2.60
2018-09-19T10:23:23.163Z,2.83
2018-09-19T10:25:50.561Z,2.92
2018-09-19T10:28:17.999Z,2.80
2018-09-19T10:30:45.464Z,2.87
2018-09-19T10:33:12.852Z,2.90
2018-09-19T10:35:40.339Z,2.30
2018-09-19T10:38:07.732Z,2.45
2018-09-19T10:40:35.139Z,2.58
2018-09-19T10:43:02.527Z,2.58
2018-09-19T10:45:29.983Z,2.33
2018-09-19T10:47:57.412Z,2.70
2018-09-19T10:50:24.851Z,2.70
2018-09-19T10:52:52.293Z,2.47
2018-09-19T10:55:19.722Z,2.67
2018-09-19T10:57:47.094Z,2.20
2018-09-19T11:00:14.524Z,3.05
2018-09-19T11:02:41.953Z,2.62
2018-09-19T11:05:09.403Z,2.90
2018-09-19T11:07:36.807Z,3.15
2018-09-19T11:10:04.647Z,3.12
2018-09-19T11:12:32.107Z,2.83
2018-09-19T11:14:59.487Z,2.60
2018-09-19T11:17:26.907Z,3.05
2018-09-19T11:19:54.303Z,2.98
2018-09-19T11:22:21.748Z,2.90
2018-09-19T11:24:49.189Z,2.75
2018-09-19T11:27:16.636Z,2.90
2018-09-19T11:29:44.039Z,3.00
2018-09-19T11:32:11.501Z,3.02
2018-09-19T11:34:39.187Z,2.70
2018-09-19T11:37:06.611Z,3.10
2018-09-19T11:39:33.973Z,2.95
2018-09-19T11:42:01.378Z,3.20
2018-09-19T11:44:28.778Z,3.30
2018-09-19T11:46:56.195Z,3.03
2018-09-19T11:49:23.629Z,3.00
2018-09-19T11:51:51.023Z,3.50
2018-09-19T11:54:18.414Z,2.90
2018-09-19T11:56:45.829Z,3.50
2018-09-19T11:59:13.260Z,2.98
2018-09-19T12:01:40.652Z,3.25
2018-09-19T12:04:08.083Z,3.58
2018-09-19T12:06:35.549Z,3.20
2018-09-19T12:09:03.765Z,3.20
2018-09-19T12:11:31.145Z,3.20
2018-09-19T12:13:58.544Z,3.70
2018-09-19T12:16:26.088Z,3.40
2018-09-19T12:18:53.541Z,3.20
2018-09-19T12:21:20.973Z,2.95
2018-09-19T12:23:48.464Z,3.30
2018-09-19T12:26:15.883Z,3.02
2018-09-19T12:28:43.373Z,3.10
2018-09-19T12:31:10.783Z,3.10
2018-09-19T12:33:38.191Z,3.60
2018-09-19T12:36:05.759Z,3.37
2018-09-19T12:38:33.217Z,3.42
2018-09-19T12:41:00.636Z,3.22
2018-09-19T12:43:28.073Z,3.70
2018-09-19T12:45:55.513Z,3.50
2018-09-19T12:48:22.974Z,3.40
2018-09-19T12:50:50.425Z,3.63
2018-09-19T12:53:17.998Z,3.17
2018-09-19T12:55:45.412Z,3.60
2018-09-19T12:58:12.804Z,3.30
2018-09-19T13:00:40.285Z,3.40
2018-09-19T13:03:07.693Z,3.20
2018-09-19T13:05:35.178Z,3.70
2018-09-19T13:08:02.603Z,3.80
2018-09-19T13:10:30.029Z,3.40
2018-09-19T13:12:57.428Z,3.20
2018-09-19T13:15:24.900Z,3.47
2018-09-19T13:17:52.342Z,2.97
2018-09-19T13:20:19.772Z,3.70
2018-09-19T13:22:47.225Z,3.25
2018-09-19T13:25:14.685Z,3.50
2018-09-19T13:27:42.158Z,3.80
2018-09-19T13:30:09.659Z,4.00
2018-09-19T13:32:37.108Z,3.35
2018-09-19T13:35:04.514Z,3.47
2018-09-19T13:37:31.953Z,3.58
2018-09-19T13:39:59.449Z,3.85
2018-09-19T13:42:26.923Z,3.10
2018-09-19T13:44:54.350Z,3.47
2018-09-19T13:47:21.808Z,3.50
2018-09-19T13:49:55.084Z,3.62
2018-09-19T13:52:22.535Z,3.30
2018-09-19T13:54:49.935Z,3.30
2018-09-19T13:57:17.400Z,3.27
2018-09-19T13:59:44.834Z,3.12
2018-09-19T14:02:12.280Z,3.20
2018-09-19T14:04:39.733Z,3.08
2018-09-19T14:07:07.379Z,3.15
2018-09-19T14:09:34.803Z,3.25
2018-09-19T14:12:02.174Z,3.42
2018-09-19T14:14:29.665Z,3.30
2018-09-19T14:16:57.024Z,2.90
2018-09-19T14:19:24.445Z,3.20
2018-09-19T14:21:52.070Z,2.70
2018-09-19T14:24:19.526Z,3.02
2018-09-19T14:26:46.914Z,2.98
2018-09-19T14:29:14.370Z,2.80
2018-09-19T14:31:41.774Z,2.80
2018-09-19T14:34:09.206Z,3.22
2018-09-19T14:36:36.607Z,3.10
2018-09-19T14:39:05.881Z,2.77
2018-09-19T14:41:33.274Z,2.80
2018-09-19T14:44:00.720Z,3.22
2018-09-19T14:46:28.111Z,2.80
2018-09-19T14:48:55.550Z,3.40
2018-09-19T14:51:22.974Z,3.20
2018-09-19T14:53:50.400Z,3.22
2018-09-19T14:56:17.830Z,3.20
2018-09-19T14:58:45.254Z,3.50
2018-09-19T15:01:12.734Z,3.02
2018-09-19T15:03:40.143Z,3.58
2018-09-19T15:06:07.766Z,3.50
2018-09-19T15:08:35.152Z,3.12
2018-09-19T15:11:02.614Z,3.20
2018-09-19T15:13:30.036Z,3.20
2018-09-19T15:15:57.470Z,3.02
2018-09-19T15:18:24.841Z,3.00
2018-09-19T15:20:52.246Z,3.10
2018-09-19T15:23:19.687Z,3.00
2018-09-19T15:25:47.121Z,2.87
2018-09-19T15:28:14.536Z,2.90
2018-09-19T15:30:41.930Z,3.35
2018-09-19T15:33:09.353Z,2.50
2018-09-19T15:35:36.755Z,2.90
2018-09-19T15:38:04.194Z,3.17
2018-09-19T15:40:31.597Z,3.00
2018-09-19T15:42:59.033Z,2.80
2018-09-19T15:45:26.448Z,3.60
2018-09-19T15:47:53.911Z,2.87
2018-09-19T15:50:21.301Z,2.90
2018-09-19T15:52:48.720Z,2.90
2018-09-19T15:55:16.126Z,2.87
2018-09-19T15:57:43.639Z,2.90
2018-09-19T16:00:11.196Z,2.80
2018-09-19T16:02:38.711Z,3.17
2018-09-19T16:05:06.242Z,2.65
2018-09-19T16:07:34.672Z,3.42
2018-09-19T16:10:02.129Z,3.55
2018-09-19T16:12:29.600Z,2.85
2018-09-19T16:14:57.072Z,2.87
2018-09-19T16:17:24.492Z,3.40
2018-09-19T16:19:51.885Z,3.20
2018-09-19T16:22:19.345Z,3.58
2018-09-19T16:24:46.789Z,3.42
2018-09-19T16:27:14.201Z,3.20
2018-09-19T16:29:41.674Z,3.40
2018-09-19T16:32:09.129Z,3.35
2018-09-19T16:34:36.515Z,3.98
2018-09-19T16:37:04.006Z,3.50
2018-09-19T16:39:31.500Z,3.33
2018-09-19T16:41:58.961Z,3.70
2018-09-19T16:44:26.576Z,3.93
2018-09-19T16:46:54.067Z,3.30
2018-09-19T16:49:21.503Z,3.70
2018-09-19T16:51:48.951Z,3.27
2018-09-19T16:54:16.402Z,3.37
2018-09-19T16:56:44.598Z,3.70
2018-09-19T16:59:12.115Z,3.43
2018-09-19T17:01:39.585Z,3.87
2018-09-19T17:04:07.063Z,4.00
2018-09-19T17:06:34.596Z,3.77
2018-09-19T17:09:03.161Z,3.97
2018-09-19T17:11:30.627Z,3.70
2018-09-19T17:13:58.075Z,3.77
2018-09-19T17:16:25.500Z,3.90
2018-09-19T17:18:52.902Z,4.13
2018-09-19T17:21:20.330Z,4.03
2018-09-19T17:23:47.681Z,4.13
2018-09-19T17:26:15.101Z,4.30
2018-09-19T17:28:43.975Z,4.43
2018-09-19T17:31:11.511Z,4.83
2018-09-19T17:33:38.941Z,3.90
2018-09-19T17:36:06.366Z,4.17
2018-09-19T17:38:33.800Z,4.30
2018-09-19T17:41:01.227Z,3.90
2018-09-19T17:43:28.566Z,4.57
2018-09-19T17:45:55.926Z,4.40
2018-09-19T17:48:23.407Z,4.57
2018-09-19T17:50:50.881Z,4.87
2018-09-19T17:53:18.345Z,4.60
2018-09-19T17:55:45.760Z,4.97
2018-09-19T17:58:13.265Z,4.70
2018-09-19T18:00:40.810Z,4.70
2018-09-19T18:03:08.256Z,4.63
2018-09-19T18:05:35.767Z,4.97
2018-09-19T18:08:03.354Z,4.67
2018-09-19T18:10:30.715Z,4.83
2018-09-19T18:14:22.627Z,4.93
2018-09-19T18:16:50.085Z,4.93
2018-09-19T18:19:17.602Z,5.07
2018-09-19T18:21:45.047Z,5.67
2018-09-19T18:24:12.525Z,5.80
2018-09-19T18:26:40.014Z,5.53
2018-09-19T18:29:07.417Z,5.40
2018-09-19T18:31:34.836Z,5.00
2018-09-19T18:34:02.335Z,5.33
2018-09-19T18:36:29.746Z,5.50
2018-09-19T18:38:57.211Z,5.63
2018-09-19T18:41:24.663Z,5.47
2018-09-19T18:43:52.094Z,5.10
2018-09-19T18:46:19.622Z,5.30
2018-09-19T18:48:47.076Z,4.93
2018-09-19T18:51:14.565Z,4.70
2018-09-19T18:53:42.040Z,7.57
2018-09-19T18:56:09.560Z,14.43
2018-09-19T18:58:37.002Z,10.77
2018-09-19T19:01:04.535Z,7.57
2018-09-19T19:03:32.051Z,6.23
2018-09-19T19:05:59.636Z,6.23
2018-09-19T19:08:27.092Z,5.80
2018-09-19T19:10:54.529Z,5.23
2018-09-19T19:13:22.033Z,6.13
2018-09-19T19:15:49.491Z,5.83
2018-09-19T19:18:16.977Z,6.33
2018-09-19T19:20:44.437Z,6.20
2018-09-19T19:23:11.987Z,6.23
2018-09-19T19:25:39.420Z,6.37
2018-09-19T19:28:07.012Z,6.37
2018-09-19T19:30:34.594Z,5.93
2018-09-19T19:33:01.946Z,5.83
2018-09-19T19:35:29.375Z,6.00
2018-09-19T19:37:56.915Z,6.27
2018-09-19T19:40:24.348Z,6.13
2018-09-19T19:42:51.789Z,6.60
2018-09-19T19:45:19.227Z,5.70
2018-09-19T19:47:46.728Z,6.23
2018-09-19T19:50:14.093Z,6.07
2018-09-19T19:52:41.517Z,5.93
2018-09-19T19:55:09.033Z,6.20
2018-09-19T19:57:36.478Z,6.10
2018-09-19T20:00:03.997Z,6.03
2018-09-19T20:02:31.420Z,6.13
2018-09-19T20:04:58.911Z,6.20
2018-09-19T20:07:26.327Z,6.40
2018-09-19T20:09:53.750Z,6.27
2018-09-19T20:12:21.188Z,6.60
2018-09-19T20:14:49.235Z,6.90
2018-09-19T20:17:17.130Z,6.93
2018-09-19T20:19:44.709Z,6.77
2018-09-19T20:22:12.101Z,6.50
2018-09-19T20:24:39.858Z,5.93
2018-09-19T20:27:08.087Z,5.83
2018-09-19T20:29:35.906Z,5.90
2018-09-19T20:32:03.655Z,6.13
2018-09-19T20:34:31.586Z,6.03
2018-09-19T20:36:59.167Z,5.83
2018-09-19T20:39:27.181Z,6.30
2018-09-19T20:41:54.816Z,6.00
2018-09-19T20:44:22.867Z,6.10
2018-09-19T20:46:50.836Z,6.50
2018-09-19T20:49:18.566Z,6.17
2018-09-19T20:51:47.118Z,6.43
2018-09-19T20:54:15.007Z,7.10
2018-09-19T20:56:42.959Z,6.67
2018-09-19T20:59:10.368Z,6.50
2018-09-19T21:01:37.823Z,6.03
2018-09-19T21:04:05.344Z,6.20
2018-09-19T21:06:32.842Z,6.03
2018-09-19T21:09:00.677Z,6.77
2018-09-19T21:11:28.137Z,6.57
2018-09-19T21:13:55.782Z,6.20
2018-09-19T21:16:23.349Z,6.63
2018-09-19T21:18:51.077Z,7.57
2018-09-19T21:21:18.623Z,6.87
2018-09-19T21:23:46.094Z,6.90
2018-09-19T21:26:13.487Z,7.80
2018-09-19T21:28:40.971Z,7.17
2018-09-19T21:31:08.546Z,7.67
2018-09-19T21:33:36.011Z,7.03
2018-09-19T21:36:03.566Z,7.30
2018-09-19T21:38:31.048Z,7.53
2018-09-19T21:40:58.476Z,8.10
2018-09-19T21:43:25.927Z,7.90
2018-09-19T21:45:53.325Z,7.30
2018-09-19T21:48:20.785Z,7.63
2018-09-19T21:50:48.172Z,7.27
2018-09-19T21:53:15.664Z,6.80
2018-09-19T21:55:43.078Z,7.17
2018-09-19T21:58:10.497Z,7.40
2018-09-19T22:00:49.267Z,7.67
2018-09-19T22:03:16.944Z,7.40
2018-09-19T22:05:44.484Z,7.50
2018-09-19T22:08:11.908Z,6.90
2018-09-19T22:10:39.286Z,8.50
2018-09-19T22:13:06.707Z,8.83
2018-09-19T22:15:34.302Z,8.37
2018-09-19T22:18:01.742Z,8.50
2018-09-19T22:20:29.156Z,9.10
2018-09-19T22:22:56.583Z,8.53
2018-09-19T22:25:24.004Z,7.70
2018-09-19T22:27:51.401Z,8.53
2018-09-19T22:30:18.851Z,8.70
2018-09-19T22:32:46.196Z,9.20
2018-09-19T22:35:13.616Z,9.83
2018-09-19T22:37:40.996Z,8.47
2018-09-19T22:40:08.441Z,9.27
2018-09-19T22:42:35.855Z,9.90
2018-09-19T22:45:03.378Z,9.20
2018-09-19T22:47:30.795Z,10.73
2018-09-19T22:49:58.222Z,9.57
2018-09-19T22:52:25.631Z,9.43
2018-09-19T22:54:53.011Z,9.60
2018-09-19T22:57:20.451Z,9.37
2018-09-19T22:59:47.833Z,9.47
2018-09-19T23:02:15.292Z,10.43
2018-09-19T23:04:42.703Z,10.10
2018-09-19T23:07:10.115Z,9.67
2018-09-19T23:09:37.520Z,9.70
2018-09-19T23:12:04.961Z,9.23
2018-09-19T23:14:32.312Z,9.07
2018-09-19T23:16:59.738Z,9.33
2018-09-19T23:19:27.135Z,9.70
2018-09-19T23:21:54.547Z,9.97
2018-09-19T23:24:21.932Z,10.03
2018-09-19T23:26:49.322Z,8.93
2018-09-19T23:29:16.758Z,8.23
2018-09-19T23:31:44.155Z,8.97
2018-09-19T23:34:11.576Z,8.87
2018-09-19T23:36:39.007Z,8.33
2018-09-19T23:39:07.774Z,9.63
2018-09-19T23:41:35.143Z,9.13
2018-09-19T23:44:02.596Z,9.10
2018-09-19T23:46:30.031Z,8.47
2018-09-19T23:48:57.465Z,8.40
2018-09-19T23:51:24.872Z,8.97
2018-09-19T23:53:52.279Z,9.53
2018-09-19T23:56:19.702Z,9.30
2018-09-19T23:58:47.462Z,9.70
